createdAt,value
2018-11-23T00:00:14.799Z,80.39
2018-11-23T00:02:43.522Z,80.84
2018-11-23T00:05:10.940Z,81.25
2018-11-23T00:07:38.837Z,81.43
2018-11-23T00:10:08.294Z,81.71
2018-11-23T00:12:35.770Z,82.07
2018-11-23T00:15:03.425Z,82.23
2018-11-23T00:17:30.843Z,82.33
2018-11-23T00:19:58.363Z,82.58
2018-11-23T00:22:25.820Z,83.04
2018-11-23T00:24:53.223Z,82.89
2018-11-23T00:27:20.719Z,83.02
2018-11-23T00:29:48.215Z,83.21
2018-11-23T00:32:15.637Z,83.64
2018-11-23T00:34:43.036Z,83.45
2018-11-23T00:37:10.507Z,83.79
2018-11-23T00:39:37.996Z,83.68
2018-11-23T00:42:05.491Z,84.29
2018-11-23T00:44:32.907Z,84.24
2018-11-23T00:47:00.321Z,84.37
2018-11-23T00:49:27.767Z,84.29
2018-11-23T00:51:55.199Z,84.72
2018-11-23T00:54:22.625Z,84.36
2018-11-23T00:56:50.107Z,84.91
2018-11-23T00:59:17.556Z,85.00
2018-11-23T01:01:50.739Z,84.90
2018-11-23T01:04:18.286Z,85.30
2018-11-23T01:06:45.776Z,85.55
2018-11-23T01:09:14.579Z,85.39
2018-11-23T01:11:43.038Z,85.78
2018-11-23T01:14:10.979Z,85.68
2018-11-23T01:16:38.884Z,86.14
2018-11-23T01:19:06.759Z,86.00
2018-11-23T01:21:34.544Z,85.63
2018-11-23T01:24:02.064Z,85.78
2018-11-23T01:26:29.472Z,85.68
2018-11-23T01:28:57.028Z,86.12
2018-11-23T01:31:24.464Z,86.17
2018-11-23T01:33:51.902Z,86.28
2018-11-23T01:36:19.389Z,86.40
2018-11-23T01:38:46.786Z,86.23
2018-11-23T01:41:14.173Z,85.74
2018-11-23T01:43:41.747Z,85.94
2018-11-23T01:46:09.292Z,85.66
2018-11-23T01:48:36.723Z,85.71
2018-11-23T01:51:04.224Z,86.01
2018-11-23T01:53:31.652Z,85.56
2018-11-23T01:55:59.098Z,85.65
2018-11-23T01:58:26.828Z,85.30
2018-11-23T02:00:54.216Z,85.31
2018-11-23T02:03:21.685Z,85.57
2018-11-23T02:05:49.100Z,85.20
2018-11-23T02:08:16.623Z,85.59
2018-11-23T02:10:44.034Z,85.40
2018-11-23T02:13:11.440Z,85.74
2018-11-23T02:15:38.854Z,85.64
2018-11-23T02:18:06.256Z,85.75
2018-11-23T02:20:33.821Z,86.16
2018-11-23T02:23:01.261Z,86.31
2018-11-23T02:25:28.683Z,86.18
2018-11-23T02:27:56.236Z,86.27
2018-11-23T02:30:24.838Z,86.53
2018-11-23T02:32:52.241Z,86.28
2018-11-23T02:35:19.661Z,86.65
2018-11-23T02:37:47.105Z,86.63
2018-11-23T02:40:16.842Z,86.25
2018-11-23T02:42:44.394Z,86.63
2018-11-23T02:45:14.214Z,86.44
2018-11-23T02:47:42.599Z,86.29
2018-11-23T02:50:10.163Z,86.21
2018-11-23T02:52:38.106Z,86.28
2018-11-23T02:55:06.274Z,86.48
2018-11-23T02:57:33.802Z,86.53
2018-11-23T03:00:01.325Z,86.29
2018-11-23T03:02:28.747Z,86.39
2018-11-23T03:04:56.174Z,86.58
2018-11-23T03:07:23.615Z,86.57
2018-11-23T03:09:50.990Z,86.96
2018-11-23T03:12:18.430Z,86.97
2018-11-23T03:14:45.848Z,86.85
2018-11-23T03:17:13.247Z,87.05
2018-11-23T03:19:40.691Z,86.88
2018-11-23T03:22:08.107Z,86.96
2018-11-23T03:24:35.699Z,87.13
2018-11-23T03:27:03.235Z,87.29
2018-11-23T03:29:30.634Z,87.19
2018-11-23T03:31:58.202Z,87.28
2018-11-23T03:34:25.619Z,87.50
2018-11-23T03:36:53.060Z,87.63
2018-11-23T03:39:20.434Z,87.69
2018-11-23T03:41:47.983Z,87.47
2018-11-23T03:44:15.531Z,87.75
2018-11-23T03:46:42.912Z,87.49
2018-11-23T03:49:10.342Z,87.98
2018-11-23T03:51:37.747Z,88.08
2018-11-23T03:54:05.336Z,88.00
2018-11-23T03:56:32.867Z,87.70
2018-11-23T03:59:00.289Z,87.79
2018-11-23T04:01:27.720Z,88.00
2018-11-23T04:03:55.259Z,88.11
2018-11-23T04:06:22.663Z,87.88
2018-11-23T04:08:50.319Z,88.11
2018-11-23T04:11:17.724Z,88.03
2018-11-23T04:13:45.229Z,87.93
2018-11-23T04:16:12.759Z,87.98
2018-11-23T04:18:40.159Z,88.19
2018-11-23T04:21:07.666Z,88.08
2018-11-23T04:23:35.084Z,87.86
2018-11-23T04:26:02.634Z,87.98
2018-11-23T04:28:30.022Z,88.02
2018-11-23T04:30:57.423Z,88.13
2018-11-23T04:33:25.526Z,88.18
2018-11-23T04:35:53.165Z,88.01
2018-11-23T04:38:20.578Z,87.87
2018-11-23T04:40:48.102Z,87.99
2018-11-23T04:43:15.626Z,88.09
2018-11-23T04:45:43.026Z,88.03
2018-11-23T04:48:10.445Z,87.89
2018-11-23T04:50:37.866Z,87.95
2018-11-23T04:53:05.378Z,87.65
2018-11-23T04:55:32.828Z,87.70
2018-11-23T04:58:00.258Z,87.99
2018-11-23T05:00:27.649Z,88.22
2018-11-23T05:02:55.065Z,88.17
2018-11-23T05:05:22.462Z,87.89
2018-11-23T05:07:49.878Z,87.85
2018-11-23T05:10:17.794Z,87.82
2018-11-23T05:12:45.201Z,88.17
2018-11-23T05:15:13.893Z,87.96
2018-11-23T05:17:41.787Z,88.03
2018-11-23T05:20:10.165Z,88.24
2018-11-23T05:22:38.346Z,88.31
2018-11-23T05:25:06.802Z,88.04
2018-11-23T05:27:34.277Z,88.03
2018-11-23T05:30:02.037Z,88.13
2018-11-23T05:32:29.487Z,88.47
2018-11-23T05:34:57.192Z,88.48
2018-11-23T05:37:24.619Z,88.64
2018-11-23T05:39:52.032Z,88.50
2018-11-23T05:42:19.528Z,88.39
2018-11-23T05:44:46.930Z,88.42
2018-11-23T05:47:14.352Z,88.39
2018-11-23T05:49:41.763Z,88.70
2018-11-23T05:52:09.253Z,88.52
2018-11-23T05:54:36.689Z,88.40
2018-11-23T05:57:04.124Z,88.50
2018-11-23T05:59:31.535Z,88.63
2018-11-23T06:01:58.958Z,88.80
2018-11-23T06:04:26.355Z,88.65
2018-11-23T06:06:53.802Z,88.84
2018-11-23T06:09:21.282Z,88.88
2018-11-23T06:11:48.762Z,88.63
2018-11-23T06:14:16.159Z,88.76
2018-11-23T06:16:43.596Z,88.65
2018-11-23T06:19:10.989Z,88.85
2018-11-23T06:21:38.412Z,88.84
2018-11-23T06:24:06.045Z,88.97
2018-11-23T06:26:33.719Z,88.67
2018-11-23T06:29:01.110Z,88.88
2018-11-23T06:31:28.643Z,89.02
2018-11-23T06:33:56.140Z,88.80
2018-11-23T06:36:23.654Z,89.01
2018-11-23T06:38:51.162Z,88.83
2018-11-23T06:41:18.563Z,88.52
2018-11-23T06:43:46.538Z,88.61
2018-11-23T06:46:13.998Z,88.70
2018-11-23T06:48:41.397Z,88.79
2018-11-23T06:51:09.050Z,88.69
2018-11-23T06:53:36.657Z,88.48
2018-11-23T06:56:04.843Z,88.82
2018-11-23T06:58:32.307Z,88.62
2018-11-23T07:00:59.835Z,88.49
2018-11-23T07:03:27.417Z,88.37
2018-11-23T07:05:55.323Z,88.11
2018-11-23T07:08:23.403Z,88.44
2018-11-23T07:10:50.874Z,87.88
2018-11-23T07:13:18.326Z,87.62
2018-11-23T07:15:45.781Z,87.46
2018-11-23T07:18:13.180Z,87.18
2018-11-23T07:20:40.622Z,87.16
2018-11-23T07:23:08.118Z,87.07
2018-11-23T07:25:35.690Z,86.82
2018-11-23T07:28:03.272Z,86.14
2018-11-23T07:30:30.919Z,86.12
2018-11-23T07:32:58.385Z,85.66
2018-11-23T07:35:25.826Z,84.87
2018-11-23T07:37:53.454Z,84.49
2018-11-23T07:40:34.078Z,83.63
2018-11-23T07:43:01.522Z,81.35
2018-11-23T07:45:28.958Z,79.59
2018-11-23T07:47:56.407Z,75.35
2018-11-23T07:50:23.844Z,72.21
2018-11-23T07:52:51.354Z,70.96
2018-11-23T07:55:18.892Z,70.47
2018-11-23T07:57:46.707Z,70.89
2018-11-23T08:00:16.438Z,71.32
2018-11-23T08:02:44.551Z,70.56
2018-11-23T08:05:13.379Z,70.78
2018-11-23T08:07:40.884Z,70.51
2018-11-23T08:10:09.467Z,71.21
2018-11-23T08:12:37.311Z,72.28
2018-11-23T08:15:07.459Z,72.71
2018-11-23T08:17:34.951Z,73.14
2018-11-23T08:20:02.531Z,72.30
2018-11-23T08:22:29.993Z,73.00
2018-11-23T08:24:57.390Z,73.68
2018-11-23T08:27:24.867Z,74.11
2018-11-23T08:29:52.325Z,72.77
2018-11-23T08:32:19.899Z,72.62
2018-11-23T08:34:47.531Z,73.26
2018-11-23T08:37:14.987Z,72.78
2018-11-23T08:39:42.474Z,73.12
2018-11-23T08:42:10.033Z,73.11
2018-11-23T08:44:37.414Z,72.42
2018-11-23T08:47:05.019Z,72.94
2018-11-23T08:49:32.433Z,73.12
2018-11-23T08:51:59.839Z,72.65
2018-11-23T08:54:27.341Z,72.25
2018-11-23T08:56:54.804Z,72.53
2018-11-23T08:59:22.280Z,72.31
2018-11-23T09:01:50.627Z,72.33
2018-11-23T09:04:18.059Z,72.07
2018-11-23T09:06:45.506Z,72.46
2018-11-23T09:09:12.945Z,73.14
2018-11-23T09:11:40.466Z,72.79
2018-11-23T09:14:08.921Z,72.46
2018-11-23T09:16:36.322Z,72.13
2018-11-23T09:19:04.035Z,71.96
2018-11-23T09:21:31.598Z,71.51
2018-11-23T09:23:59.061Z,71.57
2018-11-23T09:26:26.606Z,71.38
2018-11-23T09:28:53.975Z,71.56
2018-11-23T09:31:21.419Z,71.00
2018-11-23T09:33:48.838Z,70.89
2018-11-23T09:36:16.289Z,70.73
2018-11-23T09:38:43.718Z,70.91
2018-11-23T09:41:11.182Z,70.77
2018-11-23T09:43:38.658Z,70.47
2018-11-23T09:46:06.183Z,70.38
2018-11-23T09:48:33.695Z,70.70
2018-11-23T09:51:01.187Z,70.44
2018-11-23T09:53:28.601Z,70.79
2018-11-23T09:55:56.090Z,70.28
2018-11-23T09:58:23.585Z,70.84
2018-11-23T10:00:51.066Z,71.10
2018-11-23T10:03:18.583Z,70.70
2018-11-23T10:05:46.107Z,70.64
2018-11-23T10:08:13.537Z,70.09
2018-11-23T10:10:41.076Z,70.28
2018-11-23T10:13:08.554Z,70.26
2018-11-23T10:15:35.982Z,70.18
2018-11-23T10:18:03.482Z,70.23
2018-11-23T10:20:32.108Z,69.85
2018-11-23T10:22:59.530Z,70.09
2018-11-23T10:25:28.491Z,69.68
2018-11-23T10:27:56.255Z,69.63
2018-11-23T10:30:26.119Z,69.91
2018-11-23T10:32:55.047Z,69.00
2018-11-23T10:35:22.802Z,69.11
2018-11-23T10:37:51.629Z,69.37
2018-11-23T10:40:20.382Z,69.20
2018-11-23T10:42:47.833Z,69.24
2018-11-23T10:45:17.344Z,69.89
2018-11-23T10:47:45.330Z,69.54
2018-11-23T10:50:14.688Z,69.57
2018-11-23T10:52:42.165Z,69.78
2018-11-23T10:55:12.391Z,69.33
2018-11-23T10:57:39.823Z,69.40
2018-11-23T11:00:14.638Z,69.33
2018-11-23T11:02:44.195Z,69.26
2018-11-23T11:05:17.271Z,69.45
2018-11-23T11:07:44.826Z,69.45
2018-11-23T11:10:12.895Z,69.40
2018-11-23T11:12:41.215Z,69.39
2018-11-23T11:15:08.976Z,68.94
2018-11-23T11:17:36.511Z,69.10
2018-11-23T11:20:04.499Z,69.12
2018-11-23T11:22:32.202Z,69.04
2018-11-23T11:24:59.594Z,68.45
2018-11-23T11:27:27.063Z,68.23
2018-11-23T11:29:54.538Z,68.62
2018-11-23T11:32:21.967Z,68.77
2018-11-23T11:34:49.539Z,69.01
2018-11-23T11:37:17.009Z,68.64
2018-11-23T11:39:44.427Z,68.69
2018-11-23T11:42:12.288Z,68.39
2018-11-23T11:44:39.723Z,68.16
2018-11-23T11:47:07.199Z,68.47
2018-11-23T11:49:34.635Z,68.73
2018-11-23T11:52:02.079Z,68.61
2018-11-23T11:54:29.447Z,68.65
2018-11-23T11:56:56.909Z,68.49
2018-11-23T11:59:24.296Z,68.40
2018-11-23T12:01:51.715Z,68.23
2018-11-23T12:04:19.238Z,68.51
2018-11-23T12:06:47.102Z,68.68
2018-11-23T12:09:14.526Z,68.96
2018-11-23T12:11:41.951Z,68.72
2018-11-23T12:14:09.380Z,67.77
2018-11-23T12:16:36.914Z,67.78
2018-11-23T12:19:05.623Z,68.48
2018-11-23T12:21:32.365Z,68.32
2018-11-23T12:23:59.760Z,67.92
2018-11-23T12:26:27.206Z,67.73
2018-11-23T12:28:54.606Z,67.89
2018-11-23T12:31:22.041Z,67.93
2018-11-23T12:33:49.461Z,68.10
2018-11-23T12:36:16.917Z,67.67
2018-11-23T12:38:44.364Z,67.35
2018-11-23T12:41:11.816Z,67.72
2018-11-23T12:43:39.359Z,67.79
2018-11-23T12:46:06.784Z,67.42
2018-11-23T12:48:34.208Z,67.96
2018-11-23T12:51:01.737Z,67.24
2018-11-23T12:53:29.148Z,67.52
2018-11-23T12:55:56.679Z,67.97
2018-11-23T12:58:24.257Z,67.77
2018-11-23T13:00:51.819Z,67.51
2018-11-23T13:03:19.246Z,67.92
2018-11-23T13:05:46.662Z,68.39
2018-11-23T13:08:14.065Z,68.14
2018-11-23T13:10:41.543Z,67.79
2018-11-23T13:13:11.955Z,67.07
2018-11-23T13:15:39.526Z,67.10
2018-11-23T13:18:06.955Z,67.07
2018-11-23T13:20:34.383Z,67.48
2018-11-23T13:23:01.856Z,67.83
2018-11-23T13:25:30.771Z,67.71
2018-11-23T13:27:58.500Z,67.63
2018-11-23T13:30:28.315Z,67.61
2018-11-23T13:32:55.894Z,67.48
2018-11-23T13:35:25.429Z,67.62
2018-11-23T13:37:53.154Z,67.99
2018-11-23T13:40:21.942Z,67.92
2018-11-23T13:42:49.990Z,67.67
2018-11-23T13:45:18.880Z,68.00
2018-11-23T13:47:46.341Z,68.17
2018-11-23T13:50:15.228Z,68.35
2018-11-23T13:52:43.806Z,68.30
2018-11-23T13:55:11.398Z,67.72
2018-11-23T13:57:38.838Z,67.61
2018-11-23T14:00:11.694Z,67.65
2018-11-23T14:02:39.307Z,67.72
2018-11-23T14:05:09.467Z,67.84
2018-11-23T14:07:36.990Z,68.42
2018-11-23T14:10:07.389Z,68.29
2018-11-23T14:12:34.829Z,68.76
2018-11-23T14:15:02.308Z,68.70
2018-11-23T14:17:29.725Z,68.47
2018-11-23T14:19:58.169Z,68.19
2018-11-23T14:22:25.603Z,68.28
2018-11-23T14:24:53.122Z,68.64
2018-11-23T14:27:20.565Z,68.72
2018-11-23T14:29:48.019Z,68.93
2018-11-23T14:32:15.439Z,68.94
2018-11-23T14:34:42.871Z,69.00
2018-11-23T14:37:10.343Z,69.29
2018-11-23T14:39:37.734Z,69.24
2018-11-23T14:42:05.547Z,69.03
2018-11-23T14:44:33.040Z,69.29
2018-11-23T14:47:00.595Z,69.76
2018-11-23T14:49:27.995Z,70.30
2018-11-23T14:51:55.446Z,70.09
2018-11-23T14:54:22.912Z,70.29
2018-11-23T14:56:50.363Z,70.86
2018-11-23T14:59:17.779Z,71.15
2018-11-23T15:01:48.312Z,71.38
2018-11-23T15:04:12.675Z,71.80
2018-11-23T15:06:40.162Z,71.91
2018-11-23T15:09:08.923Z,71.89
2018-11-23T15:11:36.819Z,72.56
2018-11-23T15:14:05.018Z,72.99
2018-11-23T15:16:32.501Z,73.57
2018-11-23T15:18:59.975Z,73.65
2018-11-23T15:21:27.396Z,74.20
2018-11-23T15:23:54.931Z,74.91
2018-11-23T15:26:22.389Z,74.50
2018-11-23T15:28:49.786Z,74.92
2018-11-23T15:31:17.204Z,75.23
2018-11-23T15:33:44.743Z,75.23
2018-11-23T15:36:12.319Z,76.34
2018-11-23T15:38:39.805Z,76.51
2018-11-23T15:41:07.211Z,76.44
2018-11-23T15:43:34.655Z,77.00
2018-11-23T15:46:02.138Z,76.69
2018-11-23T15:48:29.643Z,77.24
2018-11-23T15:51:01.556Z,77.51
2018-11-23T15:53:28.999Z,77.67
2018-11-23T15:55:56.531Z,78.27
2018-11-23T15:58:23.997Z,78.26
2018-11-23T16:00:51.387Z,78.35
2018-11-23T16:03:18.828Z,78.09
2018-11-23T16:05:46.243Z,78.40
2018-11-23T16:08:16.151Z,78.43
2018-11-23T16:10:43.561Z,78.08
2018-11-23T16:13:11.758Z,78.00
2018-11-23T16:15:38.911Z,77.26
2018-11-23T16:18:07.172Z,76.82
2018-11-23T16:20:36.890Z,77.06
2018-11-23T16:23:06.151Z,77.28
2018-11-23T16:25:33.813Z,77.21
2018-11-23T16:28:02.843Z,77.22
2018-11-23T16:30:31.851Z,76.96
2018-11-23T16:33:00.495Z,76.74
2018-11-23T16:35:29.435Z,76.99
2018-11-23T16:37:58.059Z,77.25
2018-11-23T16:40:26.860Z,77.33
2018-11-23T16:42:55.090Z,77.31
2018-11-23T16:45:25.345Z,77.28
2018-11-23T16:47:53.625Z,77.62
2018-11-23T16:50:21.092Z,77.87
2018-11-23T16:52:49.292Z,77.70
2018-11-23T16:55:17.856Z,77.74
2018-11-23T16:57:46.911Z,77.59
2018-11-23T17:00:18.657Z,77.65
2018-11-23T17:02:46.170Z,77.66
2018-11-23T17:05:15.103Z,77.98
2018-11-23T17:07:42.611Z,78.44
2018-11-23T17:10:11.975Z,78.06
2018-11-23T17:12:40.005Z,77.46
2018-11-23T17:15:09.493Z,77.76
2018-11-23T17:17:37.319Z,78.23
2018-11-23T17:20:06.066Z,77.33
2018-11-23T17:22:33.508Z,77.44
2018-11-23T17:25:00.927Z,77.51
2018-11-23T17:27:28.450Z,78.25
2018-11-23T17:29:56.032Z,78.49
2018-11-23T17:32:23.668Z,78.25
2018-11-23T17:34:51.190Z,78.29
2018-11-23T17:37:18.644Z,78.13
2018-11-23T17:39:46.231Z,78.12
2018-11-23T17:42:13.830Z,78.30
2018-11-23T17:44:41.234Z,78.30
2018-11-23T17:47:08.698Z,78.42
2018-11-23T17:49:36.141Z,78.50
2018-11-23T17:52:04.016Z,78.44
2018-11-23T17:54:31.441Z,78.73
2018-11-23T17:56:58.896Z,78.62
2018-11-23T17:59:30.851Z,78.87
2018-11-23T18:01:58.444Z,78.38
2018-11-23T18:04:25.932Z,78.36
2018-11-23T18:06:53.388Z,78.28
2018-11-23T18:09:20.816Z,78.47
2018-11-23T18:11:48.407Z,78.84
2018-11-23T18:14:15.861Z,78.57
2018-11-23T18:16:43.380Z,78.44
2018-11-23T18:19:10.896Z,77.81
2018-11-23T18:21:38.297Z,78.31
2018-11-23T18:24:05.752Z,78.62
2018-11-23T18:26:33.226Z,78.17
2018-11-23T18:29:00.732Z,77.81
2018-11-23T18:31:28.248Z,78.37
2018-11-23T18:33:55.854Z,78.23
2018-11-23T18:36:23.366Z,78.57
2018-11-23T18:38:50.854Z,78.41
2018-11-23T18:41:18.395Z,78.24
2018-11-23T18:43:45.949Z,78.49
2018-11-23T18:46:13.373Z,78.48
2018-11-23T18:48:40.825Z,78.34
2018-11-23T18:51:08.298Z,78.24
2018-11-23T18:53:35.878Z,78.61
2018-11-23T18:56:03.360Z,79.11
2018-11-23T18:58:30.820Z,79.26
2018-11-23T19:00:58.241Z,79.03
2018-11-23T19:03:25.688Z,79.10
2018-11-23T19:05:53.121Z,79.27
2018-11-23T19:08:20.550Z,79.53
2018-11-23T19:10:48.595Z,79.20
2018-11-23T19:13:16.134Z,79.27
2018-11-23T19:15:43.537Z,79.88
2018-11-23T19:18:11.018Z,80.32
2018-11-23T19:20:38.461Z,80.18
2018-11-23T19:23:05.969Z,80.28
2018-11-23T19:25:33.420Z,80.06
2018-11-23T19:28:00.880Z,79.80
2018-11-23T19:30:29.049Z,79.65
2018-11-23T19:32:55.809Z,79.08
2018-11-23T19:35:23.373Z,79.11
2018-11-23T19:37:50.932Z,79.05
2018-11-23T19:40:18.392Z,78.84
2018-11-23T19:42:45.828Z,78.33
2018-11-23T19:45:15.523Z,78.36
2018-11-23T19:47:42.999Z,78.46
2018-11-23T19:50:12.544Z,78.39
2018-11-23T19:52:40.596Z,77.96
2018-11-23T19:55:08.996Z,77.52
2018-11-23T19:57:36.626Z,77.65
2018-11-23T20:00:09.785Z,77.85
2018-11-23T20:02:37.343Z,78.14
2018-11-23T20:05:07.239Z,78.12
2018-11-23T20:07:34.750Z,78.21
2018-11-23T20:10:02.293Z,78.55
2018-11-23T20:12:29.750Z,78.25
2018-11-23T20:15:01.291Z,78.14
2018-11-23T20:17:27.723Z,78.35
2018-11-23T20:19:55.123Z,78.30
2018-11-23T20:22:22.642Z,78.62
2018-11-23T20:24:50.086Z,78.31
2018-11-23T20:27:17.496Z,77.97
2018-11-23T20:29:44.920Z,77.79
2018-11-23T20:32:12.380Z,77.47
2018-11-23T20:34:39.840Z,77.55
2018-11-23T20:37:07.307Z,77.85
2018-11-23T20:39:34.882Z,78.00
2018-11-23T20:42:02.307Z,77.75
2018-11-23T20:44:29.990Z,78.12
2018-11-23T20:46:57.437Z,78.04
2018-11-23T20:49:24.881Z,77.98
2018-11-23T20:51:52.455Z,77.99
2018-11-23T20:54:19.987Z,78.04
2018-11-23T20:56:47.581Z,77.88
2018-11-23T20:59:15.024Z,77.77
2018-11-23T21:01:42.474Z,77.99
2018-11-23T21:04:09.863Z,78.11
2018-11-23T21:06:37.990Z,77.57
2018-11-23T21:09:08.468Z,77.59
2018-11-23T21:11:36.192Z,77.92
2018-11-23T21:14:04.292Z,77.85
2018-11-23T21:16:31.744Z,77.85
2018-11-23T21:18:59.152Z,77.80
2018-11-23T21:21:26.586Z,78.08
2018-11-23T21:23:54.088Z,77.26
2018-11-23T21:26:21.536Z,77.08
2018-11-23T21:28:48.991Z,77.39
2018-11-23T21:31:16.593Z,77.42
2018-11-23T21:33:43.984Z,77.88
2018-11-23T21:36:11.462Z,77.98
2018-11-23T21:38:38.967Z,77.99
2018-11-23T21:41:06.391Z,78.16
2018-11-23T21:43:33.899Z,78.31
2018-11-23T21:46:01.363Z,78.42
2018-11-23T21:48:30.430Z,78.60
2018-11-23T21:50:57.869Z,78.19
2018-11-23T21:53:25.343Z,78.51
2018-11-23T21:55:52.928Z,78.48
2018-11-23T21:58:20.408Z,78.60
2018-11-23T22:00:47.844Z,78.56
2018-11-23T22:03:15.248Z,78.45
2018-11-23T22:05:42.756Z,77.96
2018-11-23T22:08:10.184Z,78.13
2018-11-23T22:10:37.618Z,78.61
2018-11-23T22:13:05.395Z,78.27
2018-11-23T22:15:32.869Z,78.37
2018-11-23T22:18:00.340Z,78.30
2018-11-23T22:20:27.800Z,78.72
2018-11-23T22:22:55.362Z,78.49
2018-11-23T22:25:23.220Z,78.66
2018-11-23T22:27:50.771Z,78.62
2018-11-23T22:30:25.694Z,78.89
2018-11-23T22:32:53.226Z,78.86
2018-11-23T22:35:20.708Z,78.98
2018-11-23T22:37:48.166Z,78.81
2018-11-23T22:40:18.046Z,78.67
2018-11-23T22:42:46.382Z,78.60
2018-11-23T22:45:14.723Z,79.05
2018-11-23T22:47:42.199Z,79.44
2018-11-23T22:50:18.693Z,79.15
2018-11-23T22:52:46.265Z,78.96
2018-11-23T22:55:14.506Z,79.41
2018-11-23T22:57:41.921Z,79.34
2018-11-23T23:00:19.396Z,79.35
2018-11-23T23:02:47.554Z,78.91
2018-11-23T23:05:15.004Z,79.49
2018-11-23T23:07:42.602Z,79.30
2018-11-23T23:10:10.116Z,79.41
2018-11-23T23:12:37.634Z,79.49
2018-11-23T23:15:07.344Z,79.44
2018-11-23T23:17:34.766Z,79.87
2018-11-23T23:20:02.239Z,80.05
2018-11-23T23:22:29.753Z,80.07
2018-11-23T23:24:57.164Z,80.01
2018-11-23T23:27:24.618Z,80.08
2018-11-23T23:29:52.235Z,80.39
2018-11-23T23:32:19.778Z,80.41
2018-11-23T23:34:47.196Z,80.50
2018-11-23T23:37:14.652Z,80.42
2018-11-23T23:39:42.206Z,80.45
2018-11-23T23:42:09.686Z,80.49
2018-11-23T23:44:37.124Z,80.42
2018-11-23T23:47:04.594Z,80.38
2018-11-23T23:49:31.950Z,80.54
2018-11-23T23:51:59.572Z,80.34
2018-11-23T23:54:26.954Z,80.09
2018-11-23T23:56:54.384Z,79.59
2018-11-23T23:59:21.973Z,79.44
